sensor_id;sensor_type;location;lat;lon;timestamp;P1;durP1;ratioP1;P2;durP2;ratioP2
20623;SDS011;10471;42.736;23.346;2023-03-02T00:04:31;8.33;;;5.20;;
20623;SDS011;10471;42.736;23.346;2023-03-02T00:07:03;6.97;;;4.60;;
20623;SDS011;10471;42.736;23.346;2023-03-02T00:09:32;6.47;;;5.00;;
20623;SDS011;10471;42.736;23.346;2023-03-02T00:11:58;8.00;;;4.90;;
20623;SDS011;10471;42.736;23.346;2023-03-02T00:14:23;6.93;;;4.87;;
20623;SDS011;10471;42.736;23.346;2023-03-02T00:16:49;6.87;;;5.23;;
20623;SDS011;10471;42.736;23.346;2023-03-02T00:19:14;5.90;;;4.93;;
20623;SDS011;10471;42.736;23.346;2023-03-02T00:21:40;6.20;;;4.53;;
20623;SDS011;10471;42.736;23.346;2023-03-02T00:24:05;6.70;;;4.53;;
20623;SDS011;10471;42.736;23.346;2023-03-02T00:26:34;8.07;;;4.40;;
20623;SDS011;10471;42.736;23.346;2023-03-02T00:29:00;6.17;;;4.67;;
20623;SDS011;10471;42.736;23.346;2023-03-02T00:31:26;6.63;;;4.77;;
20623;SDS011;10471;42.736;23.346;2023-03-02T00:33:52;5.77;;;4.80;;
20623;SDS011;10471;42.736;23.346;2023-03-02T00:36:21;5.07;;;4.13;;
20623;SDS011;10471;42.736;23.346;2023-03-02T00:38:46;6.17;;;4.53;;
20623;SDS011;10471;42.736;23.346;2023-03-02T00:41:13;6.63;;;4.33;;
20623;SDS011;10471;42.736;23.346;2023-03-02T00:43:39;6.17;;;4.77;;
20623;SDS011;10471;42.736;23.346;2023-03-02T00:46:09;5.73;;;4.60;;
20623;SDS011;10471;42.736;23.346;2023-03-02T00:48:38;6.07;;;4.40;;
20623;SDS011;10471;42.736;23.346;2023-03-02T00:51:04;7.33;;;4.70;;
20623;SDS011;10471;42.736;23.346;2023-03-02T00:53:31;7.03;;;4.07;;
20623;SDS011;10471;42.736;23.346;2023-03-02T00:55:57;6.17;;;4.17;;
20623;SDS011;10471;42.736;23.346;2023-03-02T00:58:22;4.87;;;3.67;;
20623;SDS011;10471;42.736;23.346;2023-03-02T01:00:49;5.90;;;3.73;;
20623;SDS011;10471;42.736;23.346;2023-03-02T01:03:14;5.17;;;3.77;;
20623;SDS011;10471;42.736;23.346;2023-03-02T01:05:40;4.53;;;3.50;;
20623;SDS011;10471;42.736;23.346;2023-03-02T01:08:05;5.60;;;3.47;;
20623;SDS011;10471;42.736;23.346;2023-03-02T01:10:31;4.10;;;3.37;;
20623;SDS011;10471;42.736;23.346;2023-03-02T01:12:56;4.67;;;2.83;;
20623;SDS011;10471;42.736;23.346;2023-03-02T01:15:22;3.77;;;2.93;;
20623;SDS011;10471;42.736;23.346;2023-03-02T01:17:47;3.73;;;2.77;;
20623;SDS011;10471;42.736;23.346;2023-03-02T01:20:13;3.87;;;2.90;;
20623;SDS011;10471;42.736;23.346;2023-03-02T01:22:39;4.83;;;2.73;;
20623;SDS011;10471;42.736;23.346;2023-03-02T01:25:04;5.40;;;2.70;;
20623;SDS011;10471;42.736;23.346;2023-03-02T01:27:30;5.60;;;3.57;;
20623;SDS011;10471;42.736;23.346;2023-03-02T01:29:55;4.90;;;2.90;;
20623;SDS011;10471;42.736;23.346;2023-03-02T01:32:21;3.90;;;2.10;;
20623;SDS011;10471;42.736;23.346;2023-03-02T01:34:46;2.60;;;1.90;;
20623;SDS011;10471;42.736;23.346;2023-03-02T01:37:12;2.67;;;1.90;;
20623;SDS011;10471;42.736;23.346;2023-03-02T01:39:37;2.80;;;1.97;;
20623;SDS011;10471;42.736;23.346;2023-03-02T01:42:02;2.67;;;1.90;;
20623;SDS011;10471;42.736;23.346;2023-03-02T01:47:25;3.17;;;2.33;;
20623;SDS011;10471;42.736;23.346;2023-03-02T01:50:00;4.63;;;2.53;;
20623;SDS011;10471;42.736;23.346;2023-03-02T01:52:29;3.47;;;2.47;;
20623;SDS011;10471;42.736;23.346;2023-03-02T01:54:57;5.00;;;2.97;;
20623;SDS011;10471;42.736;23.346;2023-03-02T01:57:29;3.60;;;2.30;;
20623;SDS011;10471;42.736;23.346;2023-03-02T01:59:59;2.97;;;2.30;;
20623;SDS011;10471;42.736;23.346;2023-03-02T02:02:32;3.10;;;2.10;;
20623;SDS011;10471;42.736;23.346;2023-03-02T02:04:58;2.10;;;1.80;;
20623;SDS011;10471;42.736;23.346;2023-03-02T02:07:24;2.30;;;1.70;;
20623;SDS011;10471;42.736;23.346;2023-03-02T02:09:50;3.80;;;2.20;;
20623;SDS011;10471;42.736;23.346;2023-03-02T02:12:19;3.00;;;2.00;;
20623;SDS011;10471;42.736;23.346;2023-03-02T02:14:46;4.37;;;1.90;;
20623;SDS011;10471;42.736;23.346;2023-03-02T02:17:12;3.27;;;1.90;;
20623;SDS011;10471;42.736;23.346;2023-03-02T02:25:02;3.17;;;2.13;;
20623;SDS011;10471;42.736;23.346;2023-03-02T02:27:35;4.07;;;2.10;;
20623;SDS011;10471;42.736;23.346;2023-03-02T02:30:02;3.57;;;2.10;;
20623;SDS011;10471;42.736;23.346;2023-03-02T02:32:31;2.67;;;1.87;;
20623;SDS011;10471;42.736;23.346;2023-03-02T02:37:33;3.40;;;2.20;;
20623;SDS011;10471;42.736;23.346;2023-03-02T02:40:03;4.00;;;2.47;;
20623;SDS011;10471;42.736;23.346;2023-03-02T02:42:32;4.90;;;2.30;;
20623;SDS011;10471;42.736;23.346;2023-03-02T02:45:02;4.73;;;2.20;;
20623;SDS011;10471;42.736;23.346;2023-03-02T02:47:30;5.73;;;1.90;;
20623;SDS011;10471;42.736;23.346;2023-03-02T02:49:55;3.73;;;2.07;;
20623;SDS011;10471;42.736;23.346;2023-03-02T02:52:22;2.97;;;2.20;;
20623;SDS011;10471;42.736;23.346;2023-03-02T02:54:52;3.80;;;2.23;;
20623;SDS011;10471;42.736;23.346;2023-03-02T02:57:20;4.20;;;2.40;;
20623;SDS011;10471;42.736;23.346;2023-03-02T02:59:57;3.73;;;2.17;;
20623;SDS011;10471;42.736;23.346;2023-03-02T03:02:25;4.27;;;2.30;;
20623;SDS011;10471;42.736;23.346;2023-03-02T03:04:52;3.97;;;2.23;;
20623;SDS011;10471;42.736;23.346;2023-03-02T03:07:28;5.53;;;2.13;;
20623;SDS011;10471;42.736;23.346;2023-03-02T03:12:45;3.67;;;2.17;;
20623;SDS011;10471;42.736;23.346;2023-03-02T03:15:11;3.47;;;2.23;;
20623;SDS011;10471;42.736;23.346;2023-03-02T03:17:37;3.57;;;2.37;;
20623;SDS011;10471;42.736;23.346;2023-03-02T03:20:03;3.30;;;1.90;;
20623;SDS011;10471;42.736;23.346;2023-03-02T03:22:33;4.13;;;2.20;;
20623;SDS011;10471;42.736;23.346;2023-03-02T03:25:00;3.13;;;1.97;;
20623;SDS011;10471;42.736;23.346;2023-03-02T03:27:26;2.37;;;1.60;;
20623;SDS011;10471;42.736;23.346;2023-03-02T03:29:51;1.63;;;1.40;;
20623;SDS011;10471;42.736;23.346;2023-03-02T03:32:17;2.60;;;1.53;;
20623;SDS011;10471;42.736;23.346;2023-03-02T03:34:43;1.90;;;1.40;;
20623;SDS011;10471;42.736;23.346;2023-03-02T03:37:11;1.93;;;1.40;;
20623;SDS011;10471;42.736;23.346;2023-03-02T03:39:38;1.83;;;1.40;;
20623;SDS011;10471;42.736;23.346;2023-03-02T03:42:04;1.87;;;1.40;;
20623;SDS011;10471;42.736;23.346;2023-03-02T03:44:29;2.53;;;1.10;;
20623;SDS011;10471;42.736;23.346;2023-03-02T03:46:55;2.27;;;1.13;;
20623;SDS011;10471;42.736;23.346;2023-03-02T03:49:21;1.50;;;1.40;;
20623;SDS011;10471;42.736;23.346;2023-03-02T03:51:46;2.33;;;1.47;;
20623;SDS011;10471;42.736;23.346;2023-03-02T03:54:12;2.83;;;1.70;;
20623;SDS011;10471;42.736;23.346;2023-03-02T03:56:42;1.27;;;1.13;;
20623;SDS011;10471;42.736;23.346;2023-03-02T03:59:10;2.07;;;1.50;;
20623;SDS011;10471;42.736;23.346;2023-03-02T04:01:39;2.03;;;1.70;;
20623;SDS011;10471;42.736;23.346;2023-03-02T04:04:07;2.77;;;2.20;;
20623;SDS011;10471;42.736;23.346;2023-03-02T04:06:44;3.50;;;2.53;;
20623;SDS011;10471;42.736;23.346;2023-03-02T04:09:10;2.67;;;1.90;;
20623;SDS011;10471;42.736;23.346;2023-03-02T04:11:37;1.60;;;1.37;;
20623;SDS011;10471;42.736;23.346;2023-03-02T04:14:04;2.23;;;1.80;;
20623;SDS011;10471;42.736;23.346;2023-03-02T04:16:31;1.70;;;1.30;;
20623;SDS011;10471;42.736;23.346;2023-03-02T04:18:56;2.10;;;1.30;;
20623;SDS011;10471;42.736;23.346;2023-03-02T04:21:22;2.03;;;1.30;;
20623;SDS011;10471;42.736;23.346;2023-03-02T04:23:48;2.30;;;1.63;;
20623;SDS011;10471;42.736;23.346;2023-03-02T04:26:13;1.40;;;1.23;;
20623;SDS011;10471;42.736;23.346;2023-03-02T04:28:38;1.30;;;1.20;;
20623;SDS011;10471;42.736;23.346;2023-03-02T04:31:04;1.70;;;1.20;;
20623;SDS011;10471;42.736;23.346;2023-03-02T04:33:29;1.97;;;1.57;;
20623;SDS011;10471;42.736;23.346;2023-03-02T04:35:55;1.73;;;1.40;;
20623;SDS011;10471;42.736;23.346;2023-03-02T04:38:21;2.17;;;1.90;;
20623;SDS011;10471;42.736;23.346;2023-03-02T04:40:47;3.60;;;1.60;;
20623;SDS011;10471;42.736;23.346;2023-03-02T04:43:12;1.70;;;1.60;;
20623;SDS011;10471;42.736;23.346;2023-03-02T04:45:38;1.90;;;1.43;;
20623;SDS011;10471;42.736;23.346;2023-03-02T04:48:05;2.30;;;1.43;;
20623;SDS011;10471;42.736;23.346;2023-03-02T04:50:31;1.87;;;1.50;;
20623;SDS011;10471;42.736;23.346;2023-03-02T04:52:56;1.70;;;1.40;;
20623;SDS011;10471;42.736;23.346;2023-03-02T04:55:22;2.43;;;1.57;;
20623;SDS011;10471;42.736;23.346;2023-03-02T04:57:50;2.20;;;1.60;;
20623;SDS011;10471;42.736;23.346;2023-03-02T05:00:16;2.30;;;1.70;;
20623;SDS011;10471;42.736;23.346;2023-03-02T05:02:42;2.10;;;1.80;;
20623;SDS011;10471;42.736;23.346;2023-03-02T05:05:29;1.67;;;1.47;;
20623;SDS011;10471;42.736;23.346;2023-03-02T05:07:54;2.30;;;1.77;;
20623;SDS011;10471;42.736;23.346;2023-03-02T05:10:20;2.17;;;1.90;;
20623;SDS011;10471;42.736;23.346;2023-03-02T05:12:46;2.97;;;2.10;;
20623;SDS011;10471;42.736;23.346;2023-03-02T05:15:33;3.57;;;2.13;;
20623;SDS011;10471;42.736;23.346;2023-03-02T05:18:01;3.50;;;2.00;;
20623;SDS011;10471;42.736;23.346;2023-03-02T05:20:27;3.10;;;2.00;;
20623;SDS011;10471;42.736;23.346;2023-03-02T05:22:54;4.17;;;2.30;;
20623;SDS011;10471;42.736;23.346;2023-03-02T05:25:22;3.83;;;2.77;;
20623;SDS011;10471;42.736;23.346;2023-03-02T05:27:48;3.20;;;2.63;;
20623;SDS011;10471;42.736;23.346;2023-03-02T05:30:13;4.63;;;3.40;;
20623;SDS011;10471;42.736;23.346;2023-03-02T05:32:39;4.50;;;3.27;;
20623;SDS011;10471;42.736;23.346;2023-03-02T05:35:05;3.30;;;2.90;;
20623;SDS011;10471;42.736;23.346;2023-03-02T05:37:30;4.47;;;2.50;;
20623;SDS011;10471;42.736;23.346;2023-03-02T05:39:56;2.93;;;2.63;;
20623;SDS011;10471;42.736;23.346;2023-03-02T05:42:22;2.73;;;2.23;;
20623;SDS011;10471;42.736;23.346;2023-03-02T05:44:47;3.47;;;2.33;;
20623;SDS011;10471;42.736;23.346;2023-03-02T05:47:13;4.33;;;2.67;;
20623;SDS011;10471;42.736;23.346;2023-03-02T05:49:38;3.77;;;3.03;;
20623;SDS011;10471;42.736;23.346;2023-03-02T05:52:03;3.67;;;3.00;;
20623;SDS011;10471;42.736;23.346;2023-03-02T05:54:29;3.53;;;2.67;;
20623;SDS011;10471;42.736;23.346;2023-03-02T05:56:54;3.73;;;2.83;;
20623;SDS011;10471;42.736;23.346;2023-03-02T05:59:20;4.97;;;2.40;;
20623;SDS011;10471;42.736;23.346;2023-03-02T06:01:45;4.80;;;2.30;;
20623;SDS011;10471;42.736;23.346;2023-03-02T06:04:12;5.43;;;2.90;;
20623;SDS011;10471;42.736;23.346;2023-03-02T06:06:37;3.80;;;3.03;;
20623;SDS011;10471;42.736;23.346;2023-03-02T06:09:02;4.10;;;3.20;;
20623;SDS011;10471;42.736;23.346;2023-03-02T06:11:28;3.50;;;2.93;;
20623;SDS011;10471;42.736;23.346;2023-03-02T06:13:54;5.10;;;3.20;;
20623;SDS011;10471;42.736;23.346;2023-03-02T06:16:19;3.93;;;2.53;;
20623;SDS011;10471;42.736;23.346;2023-03-02T06:18:45;4.60;;;2.83;;
20623;SDS011;10471;42.736;23.346;2023-03-02T06:21:10;3.70;;;2.90;;
20623;SDS011;10471;42.736;23.346;2023-03-02T06:23:36;3.70;;;2.77;;
20623;SDS011;10471;42.736;23.346;2023-03-02T06:26:05;5.20;;;2.80;;
20623;SDS011;10471;42.736;23.346;2023-03-02T06:28:35;3.33;;;2.47;;
20623;SDS011;10471;42.736;23.346;2023-03-02T06:31:01;4.43;;;2.83;;
20623;SDS011;10471;42.736;23.346;2023-03-02T06:33:26;3.40;;;2.53;;
20623;SDS011;10471;42.736;23.346;2023-03-02T06:35:51;3.67;;;2.73;;
20623;SDS011;10471;42.736;23.346;2023-03-02T06:38:17;3.10;;;2.60;;
20623;SDS011;10471;42.736;23.346;2023-03-02T06:40:42;3.40;;;2.40;;
20623;SDS011;10471;42.736;23.346;2023-03-02T06:43:08;3.97;;;2.30;;
20623;SDS011;10471;42.736;23.346;2023-03-02T06:45:34;4.30;;;2.63;;
20623;SDS011;10471;42.736;23.346;2023-03-02T06:48:00;3.13;;;2.57;;
20623;SDS011;10471;42.736;23.346;2023-03-02T06:50:26;4.40;;;2.20;;
20623;SDS011;10471;42.736;23.346;2023-03-02T06:52:52;3.53;;;2.73;;
20623;SDS011;10471;42.736;23.346;2023-03-02T06:55:17;5.53;;;3.00;;
20623;SDS011;10471;42.736;23.346;2023-03-02T06:57:43;4.73;;;3.40;;
20623;SDS011;10471;42.736;23.346;2023-03-02T07:00:08;5.23;;;3.50;;
20623;SDS011;10471;42.736;23.346;2023-03-02T07:02:39;3.33;;;2.80;;
20623;SDS011;10471;42.736;23.346;2023-03-02T07:05:05;3.77;;;3.40;;
20623;SDS011;10471;42.736;23.346;2023-03-02T07:07:31;3.50;;;3.20;;
20623;SDS011;10471;42.736;23.346;2023-03-02T07:09:56;4.43;;;3.37;;
20623;SDS011;10471;42.736;23.346;2023-03-02T07:12:21;5.03;;;2.97;;
20623;SDS011;10471;42.736;23.346;2023-03-02T07:14:47;3.83;;;3.43;;
20623;SDS011;10471;42.736;23.346;2023-03-02T07:17:12;3.60;;;3.20;;
20623;SDS011;10471;42.736;23.346;2023-03-02T07:19:37;6.27;;;3.57;;
20623;SDS011;10471;42.736;23.346;2023-03-02T07:22:03;4.20;;;3.13;;
20623;SDS011;10471;42.736;23.346;2023-03-02T07:24:29;7.80;;;7.00;;
20623;SDS011;10471;42.736;23.346;2023-03-02T07:26:55;8.27;;;5.80;;
20623;SDS011;10471;42.736;23.346;2023-03-02T07:29:20;7.83;;;4.23;;
20623;SDS011;10471;42.736;23.346;2023-03-02T07:31:46;3.70;;;3.40;;
20623;SDS011;10471;42.736;23.346;2023-03-02T07:34:12;5.60;;;3.90;;
20623;SDS011;10471;42.736;23.346;2023-03-02T07:36:39;5.77;;;4.07;;
20623;SDS011;10471;42.736;23.346;2023-03-02T07:39:04;5.83;;;4.37;;
20623;SDS011;10471;42.736;23.346;2023-03-02T07:41:30;5.50;;;4.40;;
20623;SDS011;10471;42.736;23.346;2023-03-02T07:43:55;5.67;;;3.93;;
20623;SDS011;10471;42.736;23.346;2023-03-02T07:46:20;6.47;;;4.10;;
20623;SDS011;10471;42.736;23.346;2023-03-02T07:48:46;5.63;;;4.00;;
20623;SDS011;10471;42.736;23.346;2023-03-02T07:51:11;7.87;;;4.50;;
20623;SDS011;10471;42.736;23.346;2023-03-02T07:53:37;9.03;;;5.70;;
20623;SDS011;10471;42.736;23.346;2023-03-02T07:56:06;6.07;;;4.67;;
20623;SDS011;10471;42.736;23.346;2023-03-02T07:58:33;5.47;;;4.50;;
20623;SDS011;10471;42.736;23.346;2023-03-02T08:00:59;6.23;;;4.43;;
20623;SDS011;10471;42.736;23.346;2023-03-02T08:03:24;6.20;;;4.20;;
20623;SDS011;10471;42.736;23.346;2023-03-02T08:05:49;5.13;;;4.63;;
20623;SDS011;10471;42.736;23.346;2023-03-02T08:08:15;6.50;;;4.50;;
20623;SDS011;10471;42.736;23.346;2023-03-02T08:10:40;5.17;;;4.47;;
20623;SDS011;10471;42.736;23.346;2023-03-02T08:13:06;5.27;;;4.50;;
20623;SDS011;10471;42.736;23.346;2023-03-02T08:15:31;5.37;;;4.03;;
20623;SDS011;10471;42.736;23.346;2023-03-02T08:17:56;4.03;;;3.60;;
20623;SDS011;10471;42.736;23.346;2023-03-02T08:20:22;7.50;;;4.03;;
20623;SDS011;10471;42.736;23.346;2023-03-02T08:22:48;4.83;;;4.33;;
20623;SDS011;10471;42.736;23.346;2023-03-02T08:25:13;4.57;;;4.13;;
20623;SDS011;10471;42.736;23.346;2023-03-02T08:27:39;4.03;;;3.63;;
20623;SDS011;10471;42.736;23.346;2023-03-02T08:30:05;4.40;;;3.97;;
20623;SDS011;10471;42.736;23.346;2023-03-02T08:32:32;6.67;;;4.70;;
20623;SDS011;10471;42.736;23.346;2023-03-02T08:34:58;5.73;;;5.13;;
20623;SDS011;10471;42.736;23.346;2023-03-02T08:37:23;7.10;;;5.27;;
20623;SDS011;10471;42.736;23.346;2023-03-02T08:39:48;6.73;;;4.80;;
20623;SDS011;10471;42.736;23.346;2023-03-02T08:42:15;5.67;;;4.70;;
20623;SDS011;10471;42.736;23.346;2023-03-02T08:44:41;6.27;;;4.60;;
20623;SDS011;10471;42.736;23.346;2023-03-02T08:47:07;8.13;;;5.20;;
20623;SDS011;10471;42.736;23.346;2023-03-02T08:49:32;7.37;;;4.93;;
20623;SDS011;10471;42.736;23.346;2023-03-02T08:51:58;8.77;;;5.40;;
20623;SDS011;10471;42.736;23.346;2023-03-02T08:54:23;5.70;;;4.70;;
20623;SDS011;10471;42.736;23.346;2023-03-02T08:56:49;7.07;;;4.77;;
20623;SDS011;10471;42.736;23.346;2023-03-02T08:59:14;6.33;;;4.70;;
20623;SDS011;10471;42.736;23.346;2023-03-02T09:01:40;6.33;;;4.97;;
20623;SDS011;10471;42.736;23.346;2023-03-02T09:04:07;5.80;;;4.67;;
20623;SDS011;10471;42.736;23.346;2023-03-02T09:06:35;5.80;;;5.20;;
20623;SDS011;10471;42.736;23.346;2023-03-02T09:09:03;6.00;;;5.40;;
20623;SDS011;10471;42.736;23.346;2023-03-02T09:11:29;8.17;;;5.87;;
20623;SDS011;10471;42.736;23.346;2023-03-02T09:13:54;5.13;;;4.60;;
20623;SDS011;10471;42.736;23.346;2023-03-02T09:16:20;6.13;;;5.03;;
20623;SDS011;10471;42.736;23.346;2023-03-02T09:18:48;5.40;;;4.63;;
20623;SDS011;10471;42.736;23.346;2023-03-02T09:21:13;4.93;;;4.43;;
20623;SDS011;10471;42.736;23.346;2023-03-02T09:23:39;5.70;;;4.80;;
20623;SDS011;10471;42.736;23.346;2023-03-02T09:26:04;6.80;;;5.53;;
20623;SDS011;10471;42.736;23.346;2023-03-02T09:28:30;13.50;;;8.77;;
20623;SDS011;10471;42.736;23.346;2023-03-02T09:30:56;23.40;;;13.20;;
20623;SDS011;10471;42.736;23.346;2023-03-02T09:33:23;7.10;;;5.40;;
20623;SDS011;10471;42.736;23.346;2023-03-02T09:35:49;5.43;;;4.70;;
20623;SDS011;10471;42.736;23.346;2023-03-02T09:38:15;6.50;;;5.30;;
20623;SDS011;10471;42.736;23.346;2023-03-02T09:43:20;5.23;;;3.57;;
20623;SDS011;10471;42.736;23.346;2023-03-02T09:51:32;5.63;;;4.80;;
20623;SDS011;10471;42.736;23.346;2023-03-02T09:56:45;7.53;;;6.17;;
20623;SDS011;10471;42.736;23.346;2023-03-02T10:05:03;4.83;;;3.57;;
20623;SDS011;10471;42.736;23.346;2023-03-02T10:07:34;5.47;;;3.90;;
20623;SDS011;10471;42.736;23.346;2023-03-02T10:10:05;5.37;;;3.07;;
20623;SDS011;10471;42.736;23.346;2023-03-02T10:15:53;3.83;;;3.00;;
20623;SDS011;10471;42.736;23.346;2023-03-02T10:23:48;6.03;;;3.73;;
20623;SDS011;10471;42.736;23.346;2023-03-02T10:34:45;4.57;;;3.87;;
20623;SDS011;10471;42.736;23.346;2023-03-02T10:37:15;5.27;;;4.00;;
20623;SDS011;10471;42.736;23.346;2023-03-02T10:39:43;5.47;;;4.07;;
20623;SDS011;10471;42.736;23.346;2023-03-02T10:42:12;5.70;;;3.80;;
20623;SDS011;10471;42.736;23.346;2023-03-02T10:44:45;5.17;;;4.50;;
20623;SDS011;10471;42.736;23.346;2023-03-02T10:47:18;5.93;;;4.53;;
20623;SDS011;10471;42.736;23.346;2023-03-02T10:49:45;7.23;;;5.53;;
20623;SDS011;10471;42.736;23.346;2023-03-02T10:52:12;6.77;;;5.03;;
20623;SDS011;10471;42.736;23.346;2023-03-02T10:54:42;7.63;;;5.20;;
20623;SDS011;10471;42.736;23.346;2023-03-02T11:00:25;9.70;;;5.80;;
20623;SDS011;10471;42.736;23.346;2023-03-02T11:02:53;6.97;;;5.40;;
20623;SDS011;10471;42.736;23.346;2023-03-02T11:05:37;7.97;;;5.57;;
20623;SDS011;10471;42.736;23.346;2023-03-02T11:13:01;6.53;;;4.70;;
20623;SDS011;10471;42.736;23.346;2023-03-02T11:17:58;6.20;;;5.10;;
20623;SDS011;10471;42.736;23.346;2023-03-02T11:20:29;7.17;;;4.87;;
20623;SDS011;10471;42.736;23.346;2023-03-02T11:23:04;8.63;;;5.60;;
20623;SDS011;10471;42.736;23.346;2023-03-02T11:25:36;6.67;;;5.00;;
20623;SDS011;10471;42.736;23.346;2023-03-02T11:28:08;8.07;;;4.67;;
20623;SDS011;10471;42.736;23.346;2023-03-02T11:30:44;6.03;;;4.90;;
20623;SDS011;10471;42.736;23.346;2023-03-02T11:33:34;6.47;;;4.87;;
20623;SDS011;10471;42.736;23.346;2023-03-02T11:36:10;5.13;;;4.63;;
20623;SDS011;10471;42.736;23.346;2023-03-02T11:38:52;7.17;;;4.97;;
20623;SDS011;10471;42.736;23.346;2023-03-02T11:41:23;6.03;;;4.87;;
20623;SDS011;10471;42.736;23.346;2023-03-02T11:43:53;8.33;;;5.17;;
20623;SDS011;10471;42.736;23.346;2023-03-02T11:46:25;9.70;;;5.73;;
20623;SDS011;10471;42.736;23.346;2023-03-02T11:48:55;5.20;;;4.30;;
20623;SDS011;10471;42.736;23.346;2023-03-02T11:51:34;5.67;;;4.43;;
20623;SDS011;10471;42.736;23.346;2023-03-02T11:54:03;6.20;;;4.87;;
20623;SDS011;10471;42.736;23.346;2023-03-02T11:56:37;5.77;;;4.40;;
20623;SDS011;10471;42.736;23.346;2023-03-02T11:59:06;7.90;;;4.60;;
20623;SDS011;10471;42.736;23.346;2023-03-02T12:01:39;5.20;;;4.10;;
20623;SDS011;10471;42.736;23.346;2023-03-02T12:04:10;5.60;;;4.83;;
20623;SDS011;10471;42.736;23.346;2023-03-02T12:06:57;6.40;;;4.63;;
20623;SDS011;10471;42.736;23.346;2023-03-02T12:11:59;6.80;;;5.23;;
20623;SDS011;10471;42.736;23.346;2023-03-02T12:14:39;5.83;;;4.90;;
20623;SDS011;10471;42.736;23.346;2023-03-02T12:17:29;6.53;;;4.77;;
20623;SDS011;10471;42.736;23.346;2023-03-02T12:22:43;7.87;;;5.47;;
20623;SDS011;10471;42.736;23.346;2023-03-02T12:27:42;15.40;;;9.40;;
20623;SDS011;10471;42.736;23.346;2023-03-02T12:30:09;8.87;;;6.17;;
20623;SDS011;10471;42.736;23.346;2023-03-02T12:35:25;11.23;;;6.30;;
20623;SDS011;10471;42.736;23.346;2023-03-02T12:48:14;5.70;;;4.50;;
20623;SDS011;10471;42.736;23.346;2023-03-02T12:50:43;5.57;;;4.30;;
20623;SDS011;10471;42.736;23.346;2023-03-02T12:53:15;7.83;;;5.37;;
20623;SDS011;10471;42.736;23.346;2023-03-02T12:55:42;7.03;;;4.30;;
20623;SDS011;10471;42.736;23.346;2023-03-02T12:58:21;7.20;;;4.80;;
20623;SDS011;10471;42.736;23.346;2023-03-02T13:00:55;8.03;;;5.00;;
20623;SDS011;10471;42.736;23.346;2023-03-02T13:03:22;6.30;;;4.83;;
20623;SDS011;10471;42.736;23.346;2023-03-02T13:05:48;6.20;;;4.83;;
20623;SDS011;10471;42.736;23.346;2023-03-02T13:08:17;6.57;;;4.70;;
20623;SDS011;10471;42.736;23.346;2023-03-02T13:10:50;9.07;;;5.90;;
20623;SDS011;10471;42.736;23.346;2023-03-02T13:13:18;11.33;;;6.10;;
20623;SDS011;10471;42.736;23.346;2023-03-02T13:15:56;11.00;;;6.27;;
20623;SDS011;10471;42.736;23.346;2023-03-02T13:18:23;9.67;;;6.20;;
20623;SDS011;10471;42.736;23.346;2023-03-02T13:20:55;8.67;;;5.17;;
20623;SDS011;10471;42.736;23.346;2023-03-02T13:23:22;8.23;;;5.50;;
20623;SDS011;10471;42.736;23.346;2023-03-02T13:25:51;7.67;;;5.97;;
20623;SDS011;10471;42.736;23.346;2023-03-02T13:30:57;8.93;;;6.97;;
20623;SDS011;10471;42.736;23.346;2023-03-02T13:33:23;9.10;;;6.20;;
20623;SDS011;10471;42.736;23.346;2023-03-02T13:35:49;8.77;;;6.40;;
20623;SDS011;10471;42.736;23.346;2023-03-02T13:38:16;9.77;;;6.70;;
20623;SDS011;10471;42.736;23.346;2023-03-02T13:40:44;10.40;;;7.37;;
20623;SDS011;10471;42.736;23.346;2023-03-02T13:43:22;9.97;;;6.73;;
20623;SDS011;10471;42.736;23.346;2023-03-02T13:45:52;8.10;;;5.73;;
20623;SDS011;10471;42.736;23.346;2023-03-02T13:48:19;7.83;;;5.17;;
20623;SDS011;10471;42.736;23.346;2023-03-02T13:50:58;9.47;;;6.27;;
20623;SDS011;10471;42.736;23.346;2023-03-02T13:53:28;15.23;;;8.73;;
20623;SDS011;10471;42.736;23.346;2023-03-02T13:55:55;9.97;;;6.70;;
20623;SDS011;10471;42.736;23.346;2023-03-02T13:58:24;9.23;;;6.17;;
20623;SDS011;10471;42.736;23.346;2023-03-02T14:00:52;9.87;;;6.60;;
20623;SDS011;10471;42.736;23.346;2023-03-02T14:03:25;9.57;;;7.77;;
20623;SDS011;10471;42.736;23.346;2023-03-02T14:05:52;12.23;;;8.30;;
20623;SDS011;10471;42.736;23.346;2023-03-02T14:08:18;10.37;;;8.37;;
20623;SDS011;10471;42.736;23.346;2023-03-02T14:10:44;17.07;;;10.60;;
20623;SDS011;10471;42.736;23.346;2023-03-02T14:13:14;20.03;;;13.23;;
20623;SDS011;10471;42.736;23.346;2023-03-02T14:15:47;15.07;;;9.37;;
20623;SDS011;10471;42.736;23.346;2023-03-02T14:20:52;10.10;;;7.10;;
20623;SDS011;10471;42.736;23.346;2023-03-02T14:23:17;9.30;;;6.43;;
20623;SDS011;10471;42.736;23.346;2023-03-02T14:25:42;11.87;;;6.70;;
20623;SDS011;10471;42.736;23.346;2023-03-02T14:28:11;11.63;;;7.43;;
20623;SDS011;10471;42.736;23.346;2023-03-02T14:30:42;14.77;;;9.00;;
20623;SDS011;10471;42.736;23.346;2023-03-02T14:33:17;10.63;;;7.47;;
20623;SDS011;10471;42.736;23.346;2023-03-02T14:35:44;7.83;;;5.87;;
20623;SDS011;10471;42.736;23.346;2023-03-02T14:38:10;7.60;;;5.93;;
20623;SDS011;10471;42.736;23.346;2023-03-02T14:40:36;7.83;;;4.53;;
20623;SDS011;10471;42.736;23.346;2023-03-02T14:43:02;7.17;;;4.70;;
20623;SDS011;10471;42.736;23.346;2023-03-02T14:45:27;10.87;;;5.73;;
20623;SDS011;10471;42.736;23.346;2023-03-02T14:47:53;9.33;;;6.10;;
20623;SDS011;10471;42.736;23.346;2023-03-02T14:50:18;7.57;;;5.03;;
20623;SDS011;10471;42.736;23.346;2023-03-02T14:52:48;7.00;;;5.20;;
20623;SDS011;10471;42.736;23.346;2023-03-02T14:55:21;10.03;;;5.17;;
20623;SDS011;10471;42.736;23.346;2023-03-02T14:57:53;6.47;;;4.60;;
20623;SDS011;10471;42.736;23.346;2023-03-02T15:00:21;12.03;;;5.70;;
20623;SDS011;10471;42.736;23.346;2023-03-02T15:02:47;9.47;;;6.27;;
20623;SDS011;10471;42.736;23.346;2023-03-02T15:05:13;6.63;;;5.13;;
20623;SDS011;10471;42.736;23.346;2023-03-02T15:07:38;9.60;;;6.03;;
20623;SDS011;10471;42.736;23.346;2023-03-02T15:10:05;9.47;;;5.90;;
20623;SDS011;10471;42.736;23.346;2023-03-02T15:12:32;12.23;;;6.30;;
20623;SDS011;10471;42.736;23.346;2023-03-02T15:14:58;8.93;;;5.33;;
20623;SDS011;10471;42.736;23.346;2023-03-02T15:17:24;7.40;;;5.50;;
20623;SDS011;10471;42.736;23.346;2023-03-02T15:19:49;6.90;;;5.50;;
20623;SDS011;10471;42.736;23.346;2023-03-02T15:22:15;10.80;;;7.53;;
20623;SDS011;10471;42.736;23.346;2023-03-02T15:24:40;8.97;;;6.40;;
20623;SDS011;10471;42.736;23.346;2023-03-02T15:27:06;9.07;;;6.33;;
20623;SDS011;10471;42.736;23.346;2023-03-02T15:29:31;13.57;;;9.10;;
20623;SDS011;10471;42.736;23.346;2023-03-02T15:31:57;15.30;;;7.70;;
20623;SDS011;10471;42.736;23.346;2023-03-02T15:34:22;12.13;;;8.77;;
20623;SDS011;10471;42.736;23.346;2023-03-02T15:36:48;12.23;;;7.97;;
20623;SDS011;10471;42.736;23.346;2023-03-02T15:39:13;15.63;;;11.20;;
20623;SDS011;10471;42.736;23.346;2023-03-02T15:41:39;12.70;;;8.67;;
20623;SDS011;10471;42.736;23.346;2023-03-02T15:44:06;15.83;;;11.17;;
20623;SDS011;10471;42.736;23.346;2023-03-02T15:46:32;16.97;;;11.13;;
20623;SDS011;10471;42.736;23.346;2023-03-02T15:48:57;29.53;;;17.13;;
20623;SDS011;10471;42.736;23.346;2023-03-02T15:51:23;48.93;;;23.17;;
20623;SDS011;10471;42.736;23.346;2023-03-02T15:53:49;22.00;;;13.03;;
20623;SDS011;10471;42.736;23.346;2023-03-02T15:56:14;18.80;;;10.77;;
20623;SDS011;10471;42.736;23.346;2023-03-02T15:58:44;19.33;;;11.10;;
20623;SDS011;10471;42.736;23.346;2023-03-02T16:01:11;19.67;;;12.00;;
20623;SDS011;10471;42.736;23.346;2023-03-02T16:03:39;31.10;;;21.73;;